Share

Dickinson, ND (58601)

3:53 AM MDT on April 25, 2014 (GMT -0600)
Dickinson Municipal (KDIK) Elev 2592 ft | 46.80 °N, 102.80 °W | Change Station

Current weather conditions updated 57 minutes ago

Mostly Cloudy
Mostly Cloudy
42 °F
Feels Like 39 °F
N
5
Wind Variable Wind from West
Sunrise 5:45 AM
Sunset 7:53 PM
Moon Waning Crescent

Today is forecast to be Warmer than yesterday. A few showers developing late tonight.

Pressure 29.75 in
Visibility 10.0 miles
Clouds Few 7500 ft
Mostly Cloudy 10000 ft
Windchill 39 °F
Dew Point 32 °F
Humidity 67%
Rainfall 0.00 in
Snow Depth Not available.
UV 0 out of 16
Pollen 10.50 out of 12
Air Quality Not available.
Flu Activity Sporadic
METAR KDIK 250856Z AUTO 27004KT 10SM FEW075 BKN100 06/00 A2973 RMK AO2 SLP072 T00560000 55001

More Conditions Fewer Conditions

Pressure 29.75 in
Visibility 10.0 miles
Clouds Few 7500 ft
Mostly Cloudy 10000 ft
Windchill 39 °F
Dew Point 32 °F
Humidity 67%
Rainfall 0.00 in
Snow Depth Not available.
UV 0 out of 16
Pollen 10.50 out of 12
Air Quality Not available.
Flu Activity Sporadic
METAR KDIK 250856Z AUTO 27004KT 10SM FEW075 BKN100 06/00 A2973 RMK AO2 SLP072 T00560000 55001

More Conditions Fewer Conditions

10-Day Weather Forecast

Almanac

Astronomy

Apr. 25, 2014 Rise Set
Actual Time 5:45 AM MDT 7:53 PM MDT
Civil Twilight 5:12 AM MDT 8:26 PM MDT
Nautical Twilight 4:31 AM MDT 9:07 PM MDT
Astronomical Twilight 3:46 AM MDT 9:53 PM MDT
Moon 3:50 AM MDT 4:04 PM MDT
Length of Visible Light 15h 13m
Length of Day
14h 07m
Tomorrow will be 3m 3s longer.
Waning Crescent, 18% of the Moon is Illuminated
Today
Waning Crescent
Apr 29
New
May 6
First Quarter
May 14
Full
May 21
Last Quarter

Today's Extremes

State Highs State Lows

Community

  • Storm Clouds & Sunset
    Storm Clouds & Sunset
  • Deer in evening light
    Deer in evening light
  • Critter
    Critter
  • Jone Runs Falls
    Jone Runs Falls
  • Easter in Shenandoah National Park
    Easter in Shenandoah National Park

WunderPhotos

Upload Photos

1,704,876 photos uploaded!

WunderBlogs® & News

Nearby

Snow Depth

Station Depth Elevation
No new snow has been reported.

Coastal Water Temperatures

Place Temperature
No Stations Reporting

Earthquake Activity

City Distance Mag. Time & Date
No recent earthquake activity has been reported nearby.
Minimum magnitude displayed is 2.5.

Nearby Weather Stations

There are no personal weather stations in this area.

What do you think?

We're not finished. Please let us know what you like, what you don't like, and what you are still missing.